Time;durP1;ratioP1;P1;durP2;ratioP2;P2;SDS_P1;SDS_P2;PMS_P1;PMS_P2;Temp;Humidity;BMP_temperature;BMP_pressure;BME280_temperature;BME280_humidity;BME280_pressure;Samples;Min_cycle;Max_cycle;Signal;HPM_P1;HPM_P2
2022/05/10 00:00:07;;;;;;;12.67;6.87;;;;;;;;;;5027532;28;20446;-69
2022/05/10 00:02:39;;;;;;;16.43;7.90;;;;;;;;;;5027674;28;20490;-69
2022/05/10 00:05:06;;;;;;;16.53;6.87;;;;;;;;;;5010104;28;21178;-69
2022/05/10 00:07:34;;;;;;;16.13;7.17;;;;;;;;;;5028350;28;20474;-69
2022/05/10 00:10:01;;;;;;;13.43;7.00;;;;;;;;;;5027436;28;20512;-69
2022/05/10 00:12:28;;;;;;;14.10;7.03;;;;;;;;;;5027470;28;20456;-69
2022/05/10 00:14:55;;;;;;;21.97;7.83;;;;;;;;;;5028653;28;20516;-69
2022/05/10 00:17:25;;;;;;;19.23;9.10;;;;;;;;;;5028395;28;20464;-69
2022/05/10 00:19:54;;;;;;;17.70;7.70;;;;;;;;;;5010614;28;20446;-69
2022/05/10 00:22:21;;;;;;;19.73;8.57;;;;;;;;;;5025455;28;20558;-69
2022/05/10 00:24:50;;;;;;;18.70;8.43;;;;;;;;;;5008660;28;20434;-69
2022/05/10 00:27:17;;;;;;;18.47;7.77;;;;;;;;;;5027156;28;20450;-69
2022/05/10 00:29:44;;;;;;;16.17;8.73;;;;;;;;;;5008688;28;20536;-69
2022/05/10 00:32:11;;;;;;;18.97;9.00;;;;;;;;;;5024601;28;20457;-70
2022/05/10 00:34:39;;;;;;;18.47;8.63;;;;;;;;;;5009542;28;20458;-69
2022/05/10 00:37:06;;;;;;;16.70;8.20;;;;;;;;;;5008643;28;20588;-69
2022/05/10 00:39:33;;;;;;;17.77;7.63;;;;;;;;;;5033991;28;20995;-69
2022/05/10 00:42:03;;;;;;;13.67;8.00;;;;;;;;;;5033422;28;20515;-69
2022/05/10 00:44:37;;;;;;;15.20;7.80;;;;;;;;;;4994944;28;20507;-69
2022/05/10 00:47:26;;;;;;;12.87;7.90;;;;;;;;;;5026508;28;20446;-69
2022/05/10 00:50:15;;;;;;;14.77;7.73;;;;;;;;;;4993238;28;20482;-69
2022/05/10 00:52:51;;;;;;;16.20;8.10;;;;;;;;;;5026809;28;20460;-70
2022/05/10 00:55:26;;;;;;;18.57;8.47;;;;;;;;;;5018583;28;20461;-69
2022/05/10 00:58:31;;;;;;;15.87;7.60;;;;;;;;;;5024717;28;20449;-70
2022/05/10 01:00:58;;;;;;;18.47;8.83;;;;;;;;;;5027528;28;20460;-69
2022/05/10 01:03:50;;;;;;;15.20;7.70;;;;;;;;;;5013033;28;20445;-69
2022/05/10 01:06:20;;;;;;;21.07;8.90;;;;;;;;;;4992335;28;20449;-69
2022/05/10 01:08:48;;;;;;;20.83;9.17;;;;;;;;;;5026443;28;20528;-69
2022/05/10 01:11:19;;;;;;;15.93;8.87;;;;;;;;;;5024083;28;20504;-69
2022/05/10 01:13:52;;;;;;;16.97;8.40;;;;;;;;;;5004506;28;20454;-69
2022/05/10 01:16:19;;;;;;;25.60;9.63;;;;;;;;;;5017529;28;20465;-69
2022/05/10 01:18:47;;;;;;;24.27;10.90;;;;;;;;;;5026007;28;20461;-69
2022/05/10 01:21:34;;;;;;;28.33;12.43;;;;;;;;;;5025907;28;20790;-69
2022/05/10 01:24:24;;;;;;;17.20;8.50;;;;;;;;;;5026813;28;20873;-70
2022/05/10 01:27:06;;;;;;;23.80;11.17;;;;;;;;;;5021396;28;20537;-69
2022/05/10 01:29:34;;;;;;;20.30;10.63;;;;;;;;;;5024865;28;20817;-69
2022/05/10 01:34:49;;;;;;;19.07;9.40;;;;;;;;;;5018014;28;20450;-69
2022/05/10 01:37:17;;;;;;;22.87;10.10;;;;;;;;;;5011539;28;20953;-69
2022/05/10 01:40:10;;;;;;;19.83;9.90;;;;;;;;;;5015691;28;20453;-69
2022/05/10 01:42:38;;;;;;;18.13;9.80;;;;;;;;;;4991525;28;20497;-69
2022/05/10 01:45:07;;;;;;;18.73;8.63;;;;;;;;;;5007945;28;20871;-69
2022/05/10 01:47:55;;;;;;;25.50;10.13;;;;;;;;;;4992731;28;20447;-69
2022/05/10 01:50:25;;;;;;;26.33;9.70;;;;;;;;;;4974083;28;20486;-69
2022/05/10 01:52:55;;;;;;;28.27;10.30;;;;;;;;;;5008325;28;20435;-69
2022/05/10 01:55:24;;;;;;;19.63;10.00;;;;;;;;;;5007666;28;20928;-69
2022/05/10 01:57:52;;;;;;;18.23;9.73;;;;;;;;;;5007223;28;20451;-69
2022/05/10 02:00:19;;;;;;;20.53;9.47;;;;;;;;;;5003519;28;20530;-69
2022/05/10 02:02:49;;;;;;;19.87;9.27;;;;;;;;;;5007474;28;20524;-69
2022/05/10 02:05:19;;;;;;;20.87;9.93;;;;;;;;;;5007321;28;20454;-69
2022/05/10 02:07:46;;;;;;;20.23;11.07;;;;;;;;;;4989787;28;20516;-69
2022/05/10 02:10:40;;;;;;;21.30;10.57;;;;;;;;;;4991424;28;20499;-69
2022/05/10 02:13:12;;;;;;;24.13;10.50;;;;;;;;;;4991358;28;20462;-69
2022/05/10 02:15:44;;;;;;;18.63;9.30;;;;;;;;;;4992982;28;20458;-70
2022/05/10 02:18:26;;;;;;;20.77;10.00;;;;;;;;;;4993681;28;20465;-69
2022/05/10 02:21:10;;;;;;;18.43;9.77;;;;;;;;;;5010020;28;20442;-69
2022/05/10 02:23:48;;;;;;;23.83;10.33;;;;;;;;;;5010770;28;20473;-69
2022/05/10 02:26:20;;;;;;;22.37;10.60;;;;;;;;;;5010757;28;20806;-69
2022/05/10 02:28:51;;;;;;;20.73;9.90;;;;;;;;;;4992852;28;20522;-69
2022/05/10 02:31:22;;;;;;;18.90;10.03;;;;;;;;;;4975062;28;20459;-69
2022/05/10 02:33:49;;;;;;;22.40;9.40;;;;;;;;;;5010473;28;21186;-70
2022/05/10 02:36:16;;;;;;;20.83;10.23;;;;;;;;;;4993553;28;20506;-69
2022/05/10 02:38:43;;;;;;;21.13;10.03;;;;;;;;;;5028930;28;20528;-70
2022/05/10 02:41:16;;;;;;;20.47;10.33;;;;;;;;;;5015106;28;20541;-70
2022/05/10 02:43:53;;;;;;;21.07;10.10;;;;;;;;;;5014434;28;21155;-69
2022/05/10 02:46:21;;;;;;;19.10;9.70;;;;;;;;;;5028705;28;20797;-70
2022/05/10 02:48:48;;;;;;;37.07;10.90;;;;;;;;;;4996877;28;20462;-69
2022/05/10 02:51:15;;;;;;;27.73;11.03;;;;;;;;;;5026593;28;20511;-70
2022/05/10 02:53:42;;;;;;;26.30;9.47;;;;;;;;;;5030634;28;20438;-70
2022/05/10 02:56:10;;;;;;;20.33;8.87;;;;;;;;;;5028245;28;20457;-69
2022/05/10 02:58:42;;;;;;;21.50;9.03;;;;;;;;;;5027755;28;20546;-70
2022/05/10 03:01:27;;;;;;;22.83;10.07;;;;;;;;;;5011359;28;20460;-70
2022/05/10 03:03:54;;;;;;;22.90;9.07;;;;;;;;;;5028418;28;20464;-69
2022/05/10 03:06:22;;;;;;;18.20;8.83;;;;;;;;;;5030343;28;20806;-70
2022/05/10 03:08:48;;;;;;;14.60;8.67;;;;;;;;;;4996864;28;21004;-69
2022/05/10 03:11:15;;;;;;;17.60;8.03;;;;;;;;;;5030072;28;20868;-69
2022/05/10 03:13:43;;;;;;;21.37;9.70;;;;;;;;;;5029578;28;20434;-70
2022/05/10 03:16:10;;;;;;;19.07;8.90;;;;;;;;;;5030252;28;20849;-70
2022/05/10 03:18:37;;;;;;;20.20;9.07;;;;;;;;;;5028778;28;20453;-70
2022/05/10 03:21:04;;;;;;;17.40;8.73;;;;;;;;;;5025867;28;20446;-70
2022/05/10 03:23:30;;;;;;;18.73;8.60;;;;;;;;;;5029987;28;20434;-70
2022/05/10 03:25:57;;;;;;;16.77;8.90;;;;;;;;;;5029086;28;20465;-70
2022/05/10 03:28:24;;;;;;;20.40;9.17;;;;;;;;;;5030122;28;20512;-70
2022/05/10 03:30:51;;;;;;;19.63;8.83;;;;;;;;;;5021630;28;20426;-70
2022/05/10 03:33:18;;;;;;;16.93;8.57;;;;;;;;;;5010005;28;20442;-70
2022/05/10 03:35:45;;;;;;;19.53;7.97;;;;;;;;;;5022367;28;20430;-69
2022/05/10 03:38:32;;;;;;;17.00;8.10;;;;;;;;;;5019342;28;20485;-70
2022/05/10 03:41:00;;;;;;;14.53;7.67;;;;;;;;;;5022563;28;20497;-70
2022/05/10 03:43:44;;;;;;;22.03;8.53;;;;;;;;;;5011032;28;20472;-70
2022/05/10 03:46:11;;;;;;;18.50;8.50;;;;;;;;;;5022376;28;20438;-70
2022/05/10 03:48:38;;;;;;;16.03;8.07;;;;;;;;;;5022744;28;20789;-70
2022/05/10 03:51:05;;;;;;;17.87;8.17;;;;;;;;;;5023179;28;20572;-70
2022/05/10 03:53:32;;;;;;;21.10;9.07;;;;;;;;;;5018595;28;20450;-70
2022/05/10 03:55:59;;;;;;;17.37;8.77;;;;;;;;;;5010299;28;20434;-70
2022/05/10 03:58:25;;;;;;;19.27;8.80;;;;;;;;;;5022677;28;20488;-70
2022/05/10 04:00:52;;;;;;;17.57;8.63;;;;;;;;;;5022612;28;20438;-67
2022/05/10 04:03:20;;;;;;;16.93;8.90;;;;;;;;;;5001673;28;21293;-68
2022/05/10 04:06:04;;;;;;;24.53;9.00;;;;;;;;;;5022220;28;20802;-68
2022/05/10 04:08:31;;;;;;;23.93;9.30;;;;;;;;;;5020698;28;21021;-68
2022/05/10 04:11:04;;;;;;;18.53;8.17;;;;;;;;;;5020021;28;20484;-67
2022/05/10 04:13:35;;;;;;;18.03;8.23;;;;;;;;;;5021314;28;20456;-68
2022/05/10 04:16:20;;;;;;;18.37;8.13;;;;;;;;;;5021551;28;20493;-68
2022/05/10 04:18:50;;;;;;;18.13;8.50;;;;;;;;;;5020349;28;20938;-68
2022/05/10 04:21:36;;;;;;;23.73;9.33;;;;;;;;;;5011653;28;20448;-66
2022/05/10 04:24:04;;;;;;;15.23;8.33;;;;;;;;;;5019748;28;20846;-68
2022/05/10 04:26:31;;;;;;;20.50;9.13;;;;;;;;;;5020037;28;20943;-68
2022/05/10 04:29:00;;;;;;;18.87;8.70;;;;;;;;;;5003689;28;20462;-68
2022/05/10 04:31:30;;;;;;;21.10;8.30;;;;;;;;;;5007588;28;20466;-69
2022/05/10 04:33:57;;;;;;;20.87;8.30;;;;;;;;;;5018322;28;20450;-68
2022/05/10 04:36:25;;;;;;;18.30;8.47;;;;;;;;;;5006250;28;20752;-67
2022/05/10 04:38:52;;;;;;;20.30;8.97;;;;;;;;;;5012569;28;20201;-68
2022/05/10 04:41:24;;;;;;;20.37;8.60;;;;;;;;;;5014007;28;20277;-69
2022/05/10 04:44:01;;;;;;;22.90;9.57;;;;;;;;;;5015286;28;20188;-70
2022/05/10 04:46:30;;;;;;;20.40;9.60;;;;;;;;;;5014609;28;20570;-69
2022/05/10 04:48:57;;;;;;;21.57;9.13;;;;;;;;;;5015627;28;20201;-70
2022/05/10 04:51:24;;;;;;;17.17;8.73;;;;;;;;;;5011542;28;20210;-69
2022/05/10 04:53:52;;;;;;;23.07;9.53;;;;;;;;;;5014987;28;21787;-69
2022/05/10 04:56:36;;;;;;;18.37;8.63;;;;;;;;;;5015562;28;20780;-69
2022/05/10 04:59:03;;;;;;;19.03;8.90;;;;;;;;;;5011169;28;20199;-69
2022/05/10 05:01:33;;;;;;;18.53;8.80;;;;;;;;;;5014662;28;20900;-69
2022/05/10 05:04:01;;;;;;;15.90;8.20;;;;;;;;;;5011593;28;20183;-69
2022/05/10 05:06:28;;;;;;;16.77;7.73;;;;;;;;;;5009265;28;20212;-69
2022/05/10 05:08:56;;;;;;;16.20;8.33;;;;;;;;;;4998577;28;20536;-69
2022/05/10 05:11:23;;;;;;;20.93;8.30;;;;;;;;;;5017030;28;20292;-69
2022/05/10 05:13:51;;;;;;;19.03;7.47;;;;;;;;;;5013761;28;20183;-70
2022/05/10 05:16:19;;;;;;;15.10;7.93;;;;;;;;;;5000754;28;20923;-70
2022/05/10 05:18:47;;;;;;;16.83;7.53;;;;;;;;;;4994386;28;20192;-68
2022/05/10 05:21:32;;;;;;;24.13;7.37;;;;;;;;;;5017596;28;20539;-68
2022/05/10 05:23:59;;;;;;;13.50;6.37;;;;;;;;;;5026746;28;20191;-68
2022/05/10 05:26:26;;;;;;;14.33;6.47;;;;;;;;;;5028233;28;21100;-68
2022/05/10 05:28:53;;;;;;;13.87;5.57;;;;;;;;;;4996048;28;20580;-69
2022/05/10 05:31:20;;;;;;;11.27;5.57;;;;;;;;;;5005650;28;20223;-69
2022/05/10 05:33:47;;;;;;;11.90;6.03;;;;;;;;;;5006946;28;20192;-69
2022/05/10 05:36:14;;;;;;;12.00;5.07;;;;;;;;;;4986112;28;20251;-69
2022/05/10 05:38:43;;;;;;;13.47;5.07;;;;;;;;;;5026876;28;20267;-69
2022/05/10 05:41:10;;;;;;;9.23;4.47;;;;;;;;;;5027538;28;20262;-69
2022/05/10 05:43:37;;;;;;;10.83;4.47;;;;;;;;;;5010742;28;20218;-68
2022/05/10 05:46:05;;;;;;;7.07;3.97;;;;;;;;;;5028213;28;20294;-69
2022/05/10 05:48:33;;;;;;;8.27;4.10;;;;;;;;;;5028241;28;20187;-70
2022/05/10 05:51:00;;;;;;;11.48;4.38;;;;;;;;;;5032268;28;20467;-69
2022/05/10 05:53:27;;;;;;;9.23;4.60;;;;;;;;;;5030791;28;20225;-69
2022/05/10 05:55:59;;;;;;;8.00;4.27;;;;;;;;;;5030999;28;20562;-71
2022/05/10 05:58:26;;;;;;;13.13;4.30;;;;;;;;;;5031912;28;20280;-72
2022/05/10 06:00:53;;;;;;;17.47;4.77;;;;;;;;;;5031976;28;20593;-72
2022/05/10 06:03:20;;;;;;;10.60;4.17;;;;;;;;;;5030795;28;20187;-72
2022/05/10 06:05:49;;;;;;;12.50;3.67;;;;;;;;;;5030540;28;20198;-72
2022/05/10 06:08:16;;;;;;;9.07;3.70;;;;;;;;;;5030728;28;20246;-73
2022/05/10 06:10:44;;;;;;;9.73;3.80;;;;;;;;;;5030434;28;20356;-72
2022/05/10 06:13:11;;;;;;;8.90;3.17;;;;;;;;;;5030501;28;20196;-72
2022/05/10 06:15:38;;;;;;;9.77;3.23;;;;;;;;;;5014290;28;20616;-72
2022/05/10 06:18:05;;;;;;;7.93;3.00;;;;;;;;;;5030838;28;20180;-72
2022/05/10 06:20:32;;;;;;;10.13;2.80;;;;;;;;;;5031533;28;20204;-72
2022/05/10 06:23:00;;;;;;;11.47;3.83;;;;;;;;;;5030358;28;20199;-72
2022/05/10 06:25:27;;;;;;;10.77;3.20;;;;;;;;;;5014158;28;20191;-73
2022/05/10 06:27:55;;;;;;;8.87;2.73;;;;;;;;;;5030400;28;20775;-72
2022/05/10 06:30:22;;;;;;;14.23;3.30;;;;;;;;;;5031522;28;20203;-72
2022/05/10 06:32:49;;;;;;;9.80;3.00;;;;;;;;;;5030213;28;20306;-72
2022/05/10 06:35:16;;;;;;;11.07;3.43;;;;;;;;;;5046649;28;20592;-72
2022/05/10 06:40:32;;;;;;;6.13;2.50;;;;;;;;;;5020847;28;20190;-72
2022/05/10 06:43:00;;;;;;;6.73;2.30;;;;;;;;;;5030179;28;20302;-72
2022/05/10 06:45:30;;;;;;;4.80;2.47;;;;;;;;;;5030898;28;20187;-73
2022/05/10 06:47:58;;;;;;;4.00;1.53;;;;;;;;;;5014031;28;20218;-72
2022/05/10 06:50:25;;;;;;;3.93;1.93;;;;;;;;;;5013069;28;20556;-72
2022/05/10 06:52:54;;;;;;;4.70;1.80;;;;;;;;;;5029668;28;20187;-72
2022/05/10 06:55:22;;;;;;;5.20;1.97;;;;;;;;;;5013026;28;20242;-72
2022/05/10 06:57:49;;;;;;;4.37;2.00;;;;;;;;;;5030663;28;20331;-72
2022/05/10 07:00:17;;;;;;;3.30;2.00;;;;;;;;;;5031181;28;20195;-72
2022/05/10 07:02:44;;;;;;;5.93;2.00;;;;;;;;;;5029481;28;20201;-71
2022/05/10 07:05:11;;;;;;;5.73;2.00;;;;;;;;;;4996896;28;20196;-72
2022/05/10 07:07:38;;;;;;;4.40;1.83;;;;;;;;;;5030589;28;20218;-72
2022/05/10 07:10:08;;;;;;;3.83;1.53;;;;;;;;;;5030476;28;20288;-73
2022/05/10 07:12:36;;;;;;;6.37;2.20;;;;;;;;;;5030634;28;20547;-72
2022/05/10 07:15:04;;;;;;;4.60;1.97;;;;;;;;;;5030761;28;20215;-72
2022/05/10 07:17:33;;;;;;;4.83;2.10;;;;;;;;;;5012370;28;20208;-72
2022/05/10 07:20:02;;;;;;;6.23;1.90;;;;;;;;;;5029322;28;20550;-72
2022/05/10 07:22:29;;;;;;;5.30;2.20;;;;;;;;;;5029994;28;20248;-72
2022/05/10 07:24:56;;;;;;;4.13;1.80;;;;;;;;;;5013159;28;20195;-72
2022/05/10 07:27:23;;;;;;;6.07;1.90;;;;;;;;;;5030162;28;20187;-72
2022/05/10 07:29:52;;;;;;;5.83;2.23;;;;;;;;;;5030167;28;20219;-71
2022/05/10 07:32:20;;;;;;;6.60;1.70;;;;;;;;;;5028861;28;20195;-72
2022/05/10 07:34:47;;;;;;;3.57;1.83;;;;;;;;;;5028926;28;20191;-72
2022/05/10 07:37:28;;;;;;;59.20;4.83;;;;;;;;;;5029495;28;20223;-72
2022/05/10 07:39:56;;;;;;;5.07;1.87;;;;;;;;;;5040159;28;20656;-72
2022/05/10 07:42:23;;;;;;;2.30;1.63;;;;;;;;;;5032446;28;20202;-72
2022/05/10 07:44:51;;;;;;;4.27;1.80;;;;;;;;;;5049948;28;20190;-71
2022/05/10 07:47:18;;;;;;;5.20;1.90;;;;;;;;;;5050188;28;20194;-72
2022/05/10 07:49:46;;;;;;;3.90;1.90;;;;;;;;;;5015914;28;20283;-72
2022/05/10 07:52:13;;;;;;;3.23;2.00;;;;;;;;;;5032087;28;20187;-72
2022/05/10 07:54:40;;;;;;;5.40;2.20;;;;;;;;;;5031909;28;20617;-72
2022/05/10 07:57:08;;;;;;;5.67;2.10;;;;;;;;;;5032171;28;20720;-73
2022/05/10 07:59:36;;;;;;;8.33;1.80;;;;;;;;;;5049623;28;20191;-72
2022/05/10 08:02:20;;;;;;;4.90;1.87;;;;;;;;;;5034836;28;20225;-72
2022/05/10 08:04:47;;;;;;;4.13;1.80;;;;;;;;;;5031799;28;20179;-72
2022/05/10 08:07:32;;;;;;;6.50;1.80;;;;;;;;;;5031752;28;20223;-72
2022/05/10 08:09:59;;;;;;;6.33;2.00;;;;;;;;;;5031834;28;20230;-73
2022/05/10 08:12:26;;;;;;;4.67;1.80;;;;;;;;;;5031376;28;20252;-72
2022/05/10 08:14:53;;;;;;;3.10;1.80;;;;;;;;;;5032164;28;20187;-72
2022/05/10 08:17:20;;;;;;;4.70;1.53;;;;;;;;;;5031203;28;20281;-72
2022/05/10 08:19:50;;;;;;;3.87;1.80;;;;;;;;;;5049088;28;20219;-72
2022/05/10 08:22:17;;;;;;;5.40;1.67;;;;;;;;;;5049141;28;20211;-72
2022/05/10 08:24:50;;;;;;;3.07;1.40;;;;;;;;;;5049122;28;20209;-72
2022/05/10 08:27:17;;;;;;;11.03;2.17;;;;;;;;;;5015198;28;20218;-72
2022/05/10 08:29:45;;;;;;;2.90;1.60;;;;;;;;;;5031494;28;20183;-73
2022/05/10 08:32:12;;;;;;;5.63;1.63;;;;;;;;;;5031596;28;20256;-72
2022/05/10 08:34:56;;;;;;;3.90;1.40;;;;;;;;;;5049203;28;20159;-72
2022/05/10 08:37:23;;;;;;;7.13;1.97;;;;;;;;;;5048637;28;20298;-73
2022/05/10 08:39:50;;;;;;;5.63;1.60;;;;;;;;;;5039001;28;20207;-73
2022/05/10 08:42:25;;;;;;;3.43;1.60;;;;;;;;;;5028199;28;20594;-72
2022/05/10 08:44:54;;;;;;;5.83;1.57;;;;;;;;;;5029029;28;20191;-73
2022/05/10 08:47:21;;;;;;;2.57;1.40;;;;;;;;;;5028375;28;20203;-73
2022/05/10 08:49:50;;;;;;;4.87;2.07;;;;;;;;;;5027396;28;20195;-72
2022/05/10 08:52:17;;;;;;;3.43;1.50;;;;;;;;;;5027570;28;20536;-73
2022/05/10 08:54:44;;;;;;;3.93;1.50;;;;;;;;;;5027391;28;20250;-73
2022/05/10 08:57:14;;;;;;;5.43;1.70;;;;;;;;;;5028417;28;20218;-73
2022/05/10 08:59:56;;;;;;;4.43;1.60;;;;;;;;;;5027374;28;20199;-73
2022/05/10 09:02:30;;;;;;;5.20;1.73;;;;;;;;;;5028816;28;20585;-72
2022/05/10 09:05:08;;;;;;;5.20;1.87;;;;;;;;;;5011152;28;20188;-73
2022/05/10 09:07:38;;;;;;;6.77;1.70;;;;;;;;;;5028489;28;20906;-71
2022/05/10 09:10:24;;;;;;;3.50;1.40;;;;;;;;;;5027523;28;20218;-72
2022/05/10 09:12:52;;;;;;;4.37;1.57;;;;;;;;;;5010789;28;20191;-72
2022/05/10 09:15:21;;;;;;;3.00;1.60;;;;;;;;;;5028671;28;20183;-73
2022/05/10 09:17:48;;;;;;;4.57;1.60;;;;;;;;;;5026856;28;20241;-72
2022/05/10 09:20:15;;;;;;;4.47;1.60;;;;;;;;;;5028631;28;20589;-72
2022/05/10 09:22:55;;;;;;;5.90;1.83;;;;;;;;;;5027407;28;20255;-72
2022/05/10 09:25:28;;;;;;;3.83;1.70;;;;;;;;;;5028357;28;20187;-72
2022/05/10 09:27:55;;;;;;;4.17;1.77;;;;;;;;;;5028166;28;20730;-72
2022/05/10 09:30:26;;;;;;;2.73;1.50;;;;;;;;;;5010575;28;20333;-72
2022/05/10 09:35:48;;;;;;;3.77;1.80;;;;;;;;;;5026903;28;20230;-71
2022/05/10 09:38:15;;;;;;;5.10;1.60;;;;;;;;;;5026994;28;20225;-72
2022/05/10 09:40:42;;;;;;;2.97;1.50;;;;;;;;;;5042962;28;20589;-72
2022/05/10 09:43:14;;;;;;;3.53;1.57;;;;;;;;;;5048098;28;20197;-73
2022/05/10 09:45:40;;;;;;;2.73;1.40;;;;;;;;;;5047934;28;20186;-72
2022/05/10 09:48:07;;;;;;;3.50;1.30;;;;;;;;;;5030080;28;20206;-71
2022/05/10 09:50:42;;;;;;;4.43;1.67;;;;;;;;;;5029944;28;20214;-72
2022/05/10 09:53:14;;;;;;;5.57;1.60;;;;;;;;;;5013881;28;20265;-72
2022/05/10 09:55:42;;;;;;;3.63;1.73;;;;;;;;;;5047971;28;20187;-72
2022/05/10 09:58:12;;;;;;;4.17;1.77;;;;;;;;;;5047780;28;20186;-72
2022/05/10 10:00:40;;;;;;;2.87;1.50;;;;;;;;;;5047938;28;20877;-72
2022/05/10 10:03:07;;;;;;;4.47;1.60;;;;;;;;;;5030399;28;20596;-72
2022/05/10 10:05:35;;;;;;;4.60;1.90;;;;;;;;;;5047690;28;21042;-72
2022/05/10 10:08:02;;;;;;;3.07;1.60;;;;;;;;;;5030251;28;20221;-72
2022/05/10 10:10:33;;;;;;;3.20;1.80;;;;;;;;;;5029592;28;20210;-72
2022/05/10 10:13:00;;;;;;;2.93;1.53;;;;;;;;;;5013434;28;20302;-72
2022/05/10 10:15:42;;;;;;;5.03;1.33;;;;;;;;;;5030115;28;20191;-72
2022/05/10 10:18:13;;;;;;;3.17;1.60;;;;;;;;;;5029912;28;20195;-73
2022/05/10 10:20:40;;;;;;;4.97;1.37;;;;;;;;;;5029918;28;20557;-72
2022/05/10 10:23:18;;;;;;;4.70;1.67;;;;;;;;;;5013401;28;20216;-72
2022/05/10 10:25:46;;;;;;;2.60;1.50;;;;;;;;;;5047646;28;20194;-72
2022/05/10 10:28:32;;;;;;;5.27;2.10;;;;;;;;;;5030043;28;20211;-72
2022/05/10 10:30:59;;;;;;;3.93;1.70;;;;;;;;;;5047511;28;20693;-72
2022/05/10 10:33:31;;;;;;;4.13;1.70;;;;;;;;;;5047673;28;20187;-72
2022/05/10 10:36:19;;;;;;;4.07;1.70;;;;;;;;;;5033564;28;20187;-71
2022/05/10 10:38:49;;;;;;;5.73;1.63;;;;;;;;;;5014436;28;20313;-72
2022/05/10 10:41:18;;;;;;;4.17;1.60;;;;;;;;;;5011490;28;20598;-71
2022/05/10 10:43:54;;;;;;;7.43;1.50;;;;;;;;;;5010401;28;20192;-72
2022/05/10 10:46:47;;;;;;;4.37;1.90;;;;;;;;;;5010413;28;20259;-71
2022/05/10 10:49:15;;;;;;;4.97;1.70;;;;;;;;;;5011620;28;20638;-71
2022/05/10 10:51:43;;;;;;;4.53;1.70;;;;;;;;;;5010764;28;20243;-71
2022/05/10 10:54:15;;;;;;;4.53;1.70;;;;;;;;;;4994004;28;20199;-71
2022/05/10 10:56:42;;;;;;;2.67;1.50;;;;;;;;;;5010987;28;20184;-72
2022/05/10 10:59:14;;;;;;;5.43;1.93;;;;;;;;;;4993706;28;20223;-72
2022/05/10 11:01:57;;;;;;;4.90;1.60;;;;;;;;;;5010840;28;20686;-73
2022/05/10 11:04:43;;;;;;;3.13;1.50;;;;;;;;;;5011164;28;20192;-72
2022/05/10 11:07:18;;;;;;;6.73;2.10;;;;;;;;;;5011133;28;20612;-72
2022/05/10 11:09:50;;;;;;;2.03;1.23;;;;;;;;;;5010964;28;20206;-73
2022/05/10 11:12:23;;;;;;;4.70;1.67;;;;;;;;;;5011330;28;20211;-72
2022/05/10 11:14:56;;;;;;;4.10;1.50;;;;;;;;;;4993441;28;20258;-72
2022/05/10 11:17:36;;;;;;;10.90;1.80;;;;;;;;;;4993464;28;20279;-72
2022/05/10 11:20:23;;;;;;;3.00;1.30;;;;;;;;;;5009663;28;20165;-72
2022/05/10 11:22:51;;;;;;;1.83;1.47;;;;;;;;;;5009436;28;20183;-72
2022/05/10 11:25:18;;;;;;;1.93;1.20;;;;;;;;;;4993502;28;20272;-72
2022/05/10 11:28:04;;;;;;;4.93;1.30;;;;;;;;;;5010365;28;20223;-72
2022/05/10 11:31:07;;;;;;;1.83;1.20;;;;;;;;;;5009436;28;20195;-72
2022/05/10 11:33:40;;;;;;;4.97;1.37;;;;;;;;;;5010859;28;20547;-72
2022/05/10 11:36:15;;;;;;;3.87;1.30;;;;;;;;;;5010439;28;20227;-72
2022/05/10 11:38:57;;;;;;;3.27;1.40;;;;;;;;;;5027814;28;20309;-72
2022/05/10 11:41:51;;;;;;;5.73;1.40;;;;;;;;;;5010163;28;20172;-73
2022/05/10 11:44:36;;;;;;;3.27;1.40;;;;;;;;;;5009516;28;20202;-72
2022/05/10 11:47:11;;;;;;;3.47;1.70;;;;;;;;;;5009664;28;20614;-72
2022/05/10 11:49:38;;;;;;;3.70;1.47;;;;;;;;;;5009461;28;20274;-73
2022/05/10 11:52:22;;;;;;;23.90;2.60;;;;;;;;;;5009774;28;20195;-71
2022/05/10 11:54:55;;;;;;;5.23;1.50;;;;;;;;;;5010327;28;20188;-72
2022/05/10 11:57:22;;;;;;;7.13;1.80;;;;;;;;;;5010146;28;20551;-71
2022/05/10 11:59:49;;;;;;;5.17;1.53;;;;;;;;;;5009619;28;20226;-72
2022/05/10 12:02:28;;;;;;;3.47;1.80;;;;;;;;;;5025376;28;20196;-71
2022/05/10 12:05:10;;;;;;;3.43;1.60;;;;;;;;;;5010300;28;20203;-71
2022/05/10 12:07:44;;;;;;;3.13;1.43;;;;;;;;;;4992254;28;20643;-72
2022/05/10 12:10:31;;;;;;;3.87;1.70;;;;;;;;;;5009977;28;20273;-72
2022/05/10 12:12:59;;;;;;;3.17;1.20;;;;;;;;;;4992674;28;20219;-71
2022/05/10 12:21:20;;;;;;;5.13;1.50;;;;;;;;;;5010030;28;20271;-71
2022/05/10 12:23:58;;;;;;;3.03;1.27;;;;;;;;;;5009872;28;20198;-72
2022/05/10 12:26:43;;;;;;;2.83;1.53;;;;;;;;;;5009665;28;20275;-72
2022/05/10 12:29:32;;;;;;;2.00;1.30;;;;;;;;;;5009485;28;20714;-72
2022/05/10 12:32:01;;;;;;;5.30;1.50;;;;;;;;;;4991879;28;20319;-72
2022/05/10 12:34:38;;;;;;;7.80;1.73;;;;;;;;;;5009183;28;20179;-72
2022/05/10 12:37:24;;;;;;;2.87;1.30;;;;;;;;;;5009033;28;20220;-72
2022/05/10 12:40:03;;;;;;;4.13;1.50;;;;;;;;;;5027944;28;20191;-71
2022/05/10 12:42:39;;;;;;;4.17;1.50;;;;;;;;;;5048609;28;20236;-72
2022/05/10 12:45:15;;;;;;;6.73;1.53;;;;;;;;;;5049154;28;20194;-72
2022/05/10 12:47:59;;;;;;;5.17;1.97;;;;;;;;;;5049174;28;20174;-72
2022/05/10 12:50:33;;;;;;;6.47;1.57;;;;;;;;;;5048782;28;20195;-72
2022/05/10 12:53:08;;;;;;;3.97;1.50;;;;;;;;;;5031582;28;20210;-72
2022/05/10 12:55:35;;;;;;;4.37;1.40;;;;;;;;;;5014764;28;20221;-73
2022/05/10 12:58:21;;;;;;;4.47;1.43;;;;;;;;;;5033647;28;20178;-73
2022/05/10 13:00:48;;;;;;;5.13;1.73;;;;;;;;;;5030459;28;20207;-73
2022/05/10 13:03:22;;;;;;;5.50;1.50;;;;;;;;;;5032137;28;20198;-72
2022/05/10 13:05:54;;;;;;;4.70;1.67;;;;;;;;;;5048526;28;20880;-72
2022/05/10 13:08:24;;;;;;;2.90;1.33;;;;;;;;;;5048492;28;20195;-72
2022/05/10 13:10:51;;;;;;;4.30;1.33;;;;;;;;;;5048811;28;20753;-72
2022/05/10 13:13:19;;;;;;;4.93;1.60;;;;;;;;;;5030939;28;20179;-73
2022/05/10 13:15:48;;;;;;;2.07;1.20;;;;;;;;;;5048611;28;20245;-73
2022/05/10 13:18:17;;;;;;;1.90;1.17;;;;;;;;;;5049079;28;20741;-72
2022/05/10 13:20:45;;;;;;;5.73;1.63;;;;;;;;;;5048275;28;20183;-73
2022/05/10 13:23:12;;;;;;;4.77;1.67;;;;;;;;;;5030628;28;20189;-73
2022/05/10 13:25:39;;;;;;;4.80;1.60;;;;;;;;;;5030918;28;20198;-71
2022/05/10 13:28:16;;;;;;;2.10;1.40;;;;;;;;;;5030782;28;21033;-71
2022/05/10 13:30:45;;;;;;;2.43;1.20;;;;;;;;;;5048435;28;20182;-72
2022/05/10 13:33:13;;;;;;;3.73;1.40;;;;;;;;;;5048851;28;20297;-72
2022/05/10 13:35:41;;;;;;;3.30;1.60;;;;;;;;;;5030882;28;20193;-71
2022/05/10 13:38:19;;;;;;;2.87;1.47;;;;;;;;;;5048036;28;20222;-72
2022/05/10 13:40:46;;;;;;;5.07;1.50;;;;;;;;;;5031506;28;20574;-72
2022/05/10 13:43:16;;;;;;;3.20;1.30;;;;;;;;;;5027129;28;20194;-72
2022/05/10 13:45:55;;;;;;;4.07;1.50;;;;;;;;;;5010855;28;20214;-71
2022/05/10 13:48:26;;;;;;;3.07;1.70;;;;;;;;;;5010709;28;20203;-71
2022/05/10 13:50:54;;;;;;;3.47;1.60;;;;;;;;;;5027262;28;20242;-72
2022/05/10 13:53:26;;;;;;;5.20;1.77;;;;;;;;;;5028001;28;20273;-72
2022/05/10 13:55:53;;;;;;;3.87;1.93;;;;;;;;;;5027442;28;20293;-71
2022/05/10 13:58:27;;;;;;;4.10;1.70;;;;;;;;;;5026728;28;20230;-71
2022/05/10 14:00:54;;;;;;;3.37;1.40;;;;;;;;;;5027070;28;20190;-71
2022/05/10 14:03:23;;;;;;;6.90;1.70;;;;;;;;;;5026960;28;20265;-73
2022/05/10 14:05:50;;;;;;;4.30;1.63;;;;;;;;;;5026517;28;20191;-72
2022/05/10 14:08:24;;;;;;;4.60;1.73;;;;;;;;;;5010379;28;20277;-73
2022/05/10 14:10:57;;;;;;;4.93;1.80;;;;;;;;;;5030715;28;20586;-72
2022/05/10 14:13:23;;;;;;;4.70;1.80;;;;;;;;;;5031777;28;20721;-73
2022/05/10 14:15:56;;;;;;;4.73;1.87;;;;;;;;;;5031141;28;20675;-72
2022/05/10 14:18:40;;;;;;;3.80;1.37;;;;;;;;;;5031998;28;20792;-73
2022/05/10 14:21:13;;;;;;;4.30;1.73;;;;;;;;;;5031848;28;20211;-72
2022/05/10 14:23:40;;;;;;;4.30;1.60;;;;;;;;;;5030517;28;20971;-71
2022/05/10 14:26:27;;;;;;;6.13;2.10;;;;;;;;;;5030578;28;20226;-71
2022/05/10 14:28:55;;;;;;;7.77;1.70;;;;;;;;;;5001280;28;20298;-71
2022/05/10 14:31:29;;;;;;;3.07;1.70;;;;;;;;;;5031663;28;20206;-72
2022/05/10 14:33:56;;;;;;;4.70;1.80;;;;;;;;;;5030650;28;20191;-72
2022/05/10 14:36:25;;;;;;;7.10;2.00;;;;;;;;;;5031700;28;20180;-72
2022/05/10 14:38:52;;;;;;;2.87;1.43;;;;;;;;;;5032748;28;20199;-71
2022/05/10 14:41:29;;;;;;;5.20;1.60;;;;;;;;;;5034017;28;20245;-72
2022/05/10 14:43:56;;;;;;;2.97;1.50;;;;;;;;;;5012458;28;20223;-71
2022/05/10 14:46:31;;;;;;;4.83;1.40;;;;;;;;;;5012949;28;20196;-73
2022/05/10 14:49:04;;;;;;;3.73;1.90;;;;;;;;;;5011733;28;20192;-72
2022/05/10 14:51:37;;;;;;;3.93;1.50;;;;;;;;;;5026663;28;20874;-71
2022/05/10 14:54:05;;;;;;;4.00;1.50;;;;;;;;;;5028821;28;20313;-72
2022/05/10 14:56:47;;;;;;;6.33;1.87;;;;;;;;;;5013743;28;20202;-72
2022/05/10 14:59:21;;;;;;;5.60;2.00;;;;;;;;;;5030653;28;20661;-72
2022/05/10 15:01:48;;;;;;;9.03;2.33;;;;;;;;;;5029941;28;20182;-72
2022/05/10 15:04:19;;;;;;;7.47;1.80;;;;;;;;;;5025953;28;20191;-72
2022/05/10 15:06:46;;;;;;;11.37;2.20;;;;;;;;;;5022864;28;20296;-72
2022/05/10 15:09:19;;;;;;;4.00;1.80;;;;;;;;;;5004760;28;20191;-72
2022/05/10 15:14:31;;;;;;;2.73;1.47;;;;;;;;;;5016385;28;20220;-71
2022/05/10 15:16:58;;;;;;;4.53;1.90;;;;;;;;;;5030795;28;20651;-72